sensor_id;sensor_type;location;lat;lon;timestamp;P1;durP1;ratioP1;P2;durP2;ratioP2
4819;SDS011;2424;49.696;6.630;2023-06-10T00:01:57;4.63;;;4.27;;
4819;SDS011;2424;49.696;6.630;2023-06-10T00:07:21;4.13;;;3.73;;
4819;SDS011;2424;49.696;6.630;2023-06-10T00:12:43;4.77;;;4.43;;
4819;SDS011;2424;49.696;6.630;2023-06-10T00:18:05;4.33;;;4.03;;
4819;SDS011;2424;49.696;6.630;2023-06-10T00:23:31;4.67;;;4.27;;
4819;SDS011;2424;49.696;6.630;2023-06-10T00:28:57;4.90;;;4.50;;
4819;SDS011;2424;49.696;6.630;2023-06-10T00:34:20;4.63;;;4.27;;
4819;SDS011;2424;49.696;6.630;2023-06-10T00:39:43;4.13;;;3.83;;
4819;SDS011;2424;49.696;6.630;2023-06-10T00:45:06;4.30;;;4.00;;
4819;SDS011;2424;49.696;6.630;2023-06-10T00:50:28;3.90;;;3.67;;
4819;SDS011;2424;49.696;6.630;2023-06-10T00:55:52;4.80;;;4.37;;
4819;SDS011;2424;49.696;6.630;2023-06-10T01:01:14;4.07;;;3.77;;
4819;SDS011;2424;49.696;6.630;2023-06-10T01:06:39;4.70;;;4.30;;
4819;SDS011;2424;49.696;6.630;2023-06-10T01:12:12;4.17;;;3.87;;
4819;SDS011;2424;49.696;6.630;2023-06-10T01:17:52;3.90;;;3.60;;
4819;SDS011;2424;49.696;6.630;2023-06-10T01:23:17;5.37;;;4.90;;
4819;SDS011;2424;49.696;6.630;2023-06-10T01:28:40;5.10;;;4.70;;
4819;SDS011;2424;49.696;6.630;2023-06-10T01:34:10;4.30;;;4.03;;
4819;SDS011;2424;49.696;6.630;2023-06-10T01:39:35;4.90;;;4.40;;
4819;SDS011;2424;49.696;6.630;2023-06-10T01:44:58;4.40;;;4.07;;
4819;SDS011;2424;49.696;6.630;2023-06-10T01:50:20;4.43;;;4.10;;
4819;SDS011;2424;49.696;6.630;2023-06-10T01:55:44;4.90;;;4.50;;
4819;SDS011;2424;49.696;6.630;2023-06-10T02:01:06;4.67;;;4.30;;
4819;SDS011;2424;49.696;6.630;2023-06-10T02:06:28;4.77;;;4.37;;
4819;SDS011;2424;49.696;6.630;2023-06-10T02:11:52;5.10;;;4.70;;
4819;SDS011;2424;49.696;6.630;2023-06-10T02:17:14;4.87;;;4.47;;
4819;SDS011;2424;49.696;6.630;2023-06-10T02:22:36;5.03;;;4.63;;
4819;SDS011;2424;49.696;6.630;2023-06-10T02:28:00;5.87;;;5.33;;
4819;SDS011;2424;49.696;6.630;2023-06-10T02:33:23;4.13;;;3.93;;
4819;SDS011;2424;49.696;6.630;2023-06-10T02:38:45;4.37;;;4.07;;
4819;SDS011;2424;49.696;6.630;2023-06-10T02:44:09;5.50;;;5.10;;
4819;SDS011;2424;49.696;6.630;2023-06-10T02:49:31;4.80;;;4.40;;
4819;SDS011;2424;49.696;6.630;2023-06-10T02:54:53;4.80;;;4.50;;
4819;SDS011;2424;49.696;6.630;2023-06-10T03:00:17;4.17;;;3.87;;
4819;SDS011;2424;49.696;6.630;2023-06-10T03:05:40;5.83;;;5.33;;
4819;SDS011;2424;49.696;6.630;2023-06-10T03:11:02;5.57;;;4.47;;
4819;SDS011;2424;49.696;6.630;2023-06-10T03:16:26;5.10;;;4.70;;
4819;SDS011;2424;49.696;6.630;2023-06-10T03:22:07;4.63;;;4.30;;
4819;SDS011;2424;49.696;6.630;2023-06-10T03:27:30;5.53;;;4.30;;
4819;SDS011;2424;49.696;6.630;2023-06-10T03:32:54;5.10;;;4.70;;
4819;SDS011;2424;49.696;6.630;2023-06-10T03:38:16;4.63;;;4.27;;
4819;SDS011;2424;49.696;6.630;2023-06-10T03:43:38;6.40;;;4.17;;
4819;SDS011;2424;49.696;6.630;2023-06-10T03:49:03;6.03;;;4.80;;
4819;SDS011;2424;49.696;6.630;2023-06-10T03:54:25;6.07;;;4.77;;
4819;SDS011;2424;49.696;6.630;2023-06-10T03:59:47;4.57;;;4.27;;
4819;SDS011;2424;49.696;6.630;2023-06-10T04:05:11;4.60;;;4.20;;
4819;SDS011;2424;49.696;6.630;2023-06-10T04:10:34;4.60;;;4.20;;
4819;SDS011;2424;49.696;6.630;2023-06-10T04:15:56;5.00;;;4.60;;
4819;SDS011;2424;49.696;6.630;2023-06-10T04:21:20;5.43;;;4.70;;
4819;SDS011;2424;49.696;6.630;2023-06-10T04:26:43;4.90;;;4.50;;
4819;SDS011;2424;49.696;6.630;2023-06-10T04:32:05;4.73;;;4.40;;
4819;SDS011;2424;49.696;6.630;2023-06-10T04:37:29;4.57;;;4.20;;
4819;SDS011;2424;49.696;6.630;2023-06-10T04:42:52;5.20;;;4.80;;
4819;SDS011;2424;49.696;6.630;2023-06-10T04:48:14;5.30;;;4.90;;
4819;SDS011;2424;49.696;6.630;2023-06-10T04:53:37;5.40;;;4.80;;
4819;SDS011;2424;49.696;6.630;2023-06-10T04:59:00;5.10;;;4.70;;
4819;SDS011;2424;49.696;6.630;2023-06-10T05:04:22;4.30;;;4.10;;
4819;SDS011;2424;49.696;6.630;2023-06-10T05:09:45;4.50;;;4.10;;
4819;SDS011;2424;49.696;6.630;2023-06-10T05:15:08;5.10;;;4.60;;
4819;SDS011;2424;49.696;6.630;2023-06-10T05:20:31;4.57;;;4.17;;
4819;SDS011;2424;49.696;6.630;2023-06-10T05:25:55;5.07;;;4.67;;
4819;SDS011;2424;49.696;6.630;2023-06-10T05:31:18;4.67;;;4.37;;
4819;SDS011;2424;49.696;6.630;2023-06-10T05:36:40;5.90;;;5.37;;
4819;SDS011;2424;49.696;6.630;2023-06-10T05:42:06;6.50;;;4.17;;
4819;SDS011;2424;49.696;6.630;2023-06-10T05:47:29;4.63;;;4.33;;
4819;SDS011;2424;49.696;6.630;2023-06-10T05:52:51;4.50;;;4.10;;
4819;SDS011;2424;49.696;6.630;2023-06-10T05:58:15;6.13;;;4.40;;
4819;SDS011;2424;49.696;6.630;2023-06-10T06:03:37;5.17;;;4.77;;
4819;SDS011;2424;49.696;6.630;2023-06-10T06:08:59;3.97;;;3.67;;
4819;SDS011;2424;49.696;6.630;2023-06-10T06:14:23;4.30;;;4.00;;
4819;SDS011;2424;49.696;6.630;2023-06-10T06:19:45;4.40;;;4.00;;
4819;SDS011;2424;49.696;6.630;2023-06-10T06:25:08;5.00;;;4.67;;
4819;SDS011;2424;49.696;6.630;2023-06-10T06:30:31;4.47;;;4.07;;
4819;SDS011;2424;49.696;6.630;2023-06-10T06:35:53;5.00;;;4.60;;
4819;SDS011;2424;49.696;6.630;2023-06-10T06:41:15;4.47;;;4.17;;
4819;SDS011;2424;49.696;6.630;2023-06-10T06:46:39;3.80;;;3.50;;
4819;SDS011;2424;49.696;6.630;2023-06-10T06:52:01;4.10;;;3.70;;
4819;SDS011;2424;49.696;6.630;2023-06-10T06:57:23;4.57;;;4.23;;
4819;SDS011;2424;49.696;6.630;2023-06-10T07:02:47;6.70;;;4.03;;
4819;SDS011;2424;49.696;6.630;2023-06-10T07:08:09;4.90;;;4.27;;
4819;SDS011;2424;49.696;6.630;2023-06-10T07:13:32;4.50;;;3.80;;
4819;SDS011;2424;49.696;6.630;2023-06-10T07:18:55;3.13;;;2.43;;
4819;SDS011;2424;49.696;6.630;2023-06-10T07:24:17;4.73;;;4.33;;
4819;SDS011;2424;49.696;6.630;2023-06-10T07:29:40;2.00;;;0.93;;
4819;SDS011;2424;49.696;6.630;2023-06-10T07:35:05;3.90;;;3.60;;
4819;SDS011;2424;49.696;6.630;2023-06-10T07:40:29;6.60;;;4.80;;
4819;SDS011;2424;49.696;6.630;2023-06-10T07:45:51;4.97;;;4.40;;
4819;SDS011;2424;49.696;6.630;2023-06-10T07:51:15;4.83;;;4.27;;
4819;SDS011;2424;49.696;6.630;2023-06-10T07:56:38;3.90;;;3.60;;
4819;SDS011;2424;49.696;6.630;2023-06-10T08:02:00;5.73;;;4.97;;
4819;SDS011;2424;49.696;6.630;2023-06-10T08:07:23;3.90;;;3.70;;
4819;SDS011;2424;49.696;6.630;2023-06-10T08:12:46;4.43;;;4.10;;
4819;SDS011;2424;49.696;6.630;2023-06-10T08:18:08;4.33;;;3.93;;
4819;SDS011;2424;49.696;6.630;2023-06-10T08:23:32;3.80;;;3.53;;
4819;SDS011;2424;49.696;6.630;2023-06-10T08:28:54;5.07;;;4.57;;
4819;SDS011;2424;49.696;6.630;2023-06-10T08:34:16;4.90;;;3.97;;
4819;SDS011;2424;49.696;6.630;2023-06-10T08:39:39;4.60;;;4.20;;
4819;SDS011;2424;49.696;6.630;2023-06-10T08:45:02;3.13;;;2.87;;
4819;SDS011;2424;49.696;6.630;2023-06-10T08:50:26;3.20;;;3.00;;
4819;SDS011;2424;49.696;6.630;2023-06-10T08:55:51;3.37;;;3.17;;
4819;SDS011;2424;49.696;6.630;2023-06-10T09:01:14;3.93;;;3.57;;
4819;SDS011;2424;49.696;6.630;2023-06-10T09:06:36;3.10;;;2.90;;
4819;SDS011;2424;49.696;6.630;2023-06-10T09:12:01;2.90;;;2.70;;
4819;SDS011;2424;49.696;6.630;2023-06-10T09:17:23;3.93;;;3.53;;
4819;SDS011;2424;49.696;6.630;2023-06-10T09:22:46;2.53;;;2.40;;
4819;SDS011;2424;49.696;6.630;2023-06-10T09:28:13;3.77;;;3.37;;
4819;SDS011;2424;49.696;6.630;2023-06-10T09:33:36;3.53;;;3.10;;
4819;SDS011;2424;49.696;6.630;2023-06-10T09:38:59;2.80;;;2.70;;
4819;SDS011;2424;49.696;6.630;2023-06-10T09:44:23;2.27;;;2.17;;
4819;SDS011;2424;49.696;6.630;2023-06-10T09:49:45;2.97;;;2.77;;
4819;SDS011;2424;49.696;6.630;2023-06-10T09:55:08;2.70;;;2.50;;
4819;SDS011;2424;49.696;6.630;2023-06-10T10:00:33;2.27;;;2.17;;
4819;SDS011;2424;49.696;6.630;2023-06-10T10:05:57;2.50;;;2.40;;
4819;SDS011;2424;49.696;6.630;2023-06-10T10:11:21;3.10;;;2.90;;
4819;SDS011;2424;49.696;6.630;2023-06-10T10:16:45;1.60;;;1.60;;
4819;SDS011;2424;49.696;6.630;2023-06-10T10:22:09;4.80;;;3.20;;
4819;SDS011;2424;49.696;6.630;2023-06-10T10:27:38;3.10;;;2.90;;
4819;SDS011;2424;49.696;6.630;2023-06-10T10:33:08;2.40;;;2.30;;
4819;SDS011;2424;49.696;6.630;2023-06-10T10:38:34;2.67;;;2.47;;
4819;SDS011;2424;49.696;6.630;2023-06-10T10:43:57;3.10;;;2.67;;
4819;SDS011;2424;49.696;6.630;2023-06-10T10:49:22;2.50;;;2.40;;
4819;SDS011;2424;49.696;6.630;2023-06-10T10:54:46;2.30;;;2.20;;
4819;SDS011;2424;49.696;6.630;2023-06-10T11:00:09;2.60;;;2.40;;
4819;SDS011;2424;49.696;6.630;2023-06-10T11:05:37;2.67;;;2.47;;
4819;SDS011;2424;49.696;6.630;2023-06-10T11:11:02;2.30;;;2.20;;
4819;SDS011;2424;49.696;6.630;2023-06-10T11:16:40;2.03;;;1.93;;
4819;SDS011;2424;49.696;6.630;2023-06-10T11:22:05;2.37;;;2.27;;
4819;SDS011;2424;49.696;6.630;2023-06-10T11:27:32;2.10;;;2.00;;
4819;SDS011;2424;49.696;6.630;2023-06-10T11:32:59;1.90;;;1.80;;
4819;SDS011;2424;49.696;6.630;2023-06-10T11:38:22;2.50;;;2.30;;
4819;SDS011;2424;49.696;6.630;2023-06-10T11:43:45;2.13;;;2.03;;
4819;SDS011;2424;49.696;6.630;2023-06-10T11:49:07;1.77;;;1.67;;
4819;SDS011;2424;49.696;6.630;2023-06-10T11:54:31;2.60;;;2.50;;
4819;SDS011;2424;49.696;6.630;2023-06-10T11:59:53;1.60;;;1.60;;
4819;SDS011;2424;49.696;6.630;2023-06-10T12:05:15;2.10;;;2.00;;
4819;SDS011;2424;49.696;6.630;2023-06-10T12:10:41;1.43;;;1.33;;
4819;SDS011;2424;49.696;6.630;2023-06-10T12:16:07;2.60;;;2.40;;
4819;SDS011;2424;49.696;6.630;2023-06-10T12:21:30;2.13;;;2.03;;
4819;SDS011;2424;49.696;6.630;2023-06-10T12:26:54;1.70;;;1.70;;
4819;SDS011;2424;49.696;6.630;2023-06-10T12:32:17;2.90;;;2.70;;
4819;SDS011;2424;49.696;6.630;2023-06-10T12:37:40;2.60;;;2.40;;
4819;SDS011;2424;49.696;6.630;2023-06-10T12:43:04;1.50;;;1.50;;
4819;SDS011;2424;49.696;6.630;2023-06-10T12:48:26;2.30;;;2.20;;
4819;SDS011;2424;49.696;6.630;2023-06-10T12:53:49;2.47;;;2.37;;
4819;SDS011;2424;49.696;6.630;2023-06-10T12:59:13;2.10;;;2.00;;
4819;SDS011;2424;49.696;6.630;2023-06-10T13:04:36;2.47;;;2.37;;
4819;SDS011;2424;49.696;6.630;2023-06-10T13:09:58;5.03;;;2.20;;
4819;SDS011;2424;49.696;6.630;2023-06-10T13:15:22;2.10;;;2.00;;
4819;SDS011;2424;49.696;6.630;2023-06-10T13:20:46;2.60;;;2.50;;
4819;SDS011;2424;49.696;6.630;2023-06-10T13:26:08;2.57;;;2.43;;
4819;SDS011;2424;49.696;6.630;2023-06-10T13:31:32;2.80;;;2.60;;
4819;SDS011;2424;49.696;6.630;2023-06-10T13:36:54;2.90;;;2.70;;
4819;SDS011;2424;49.696;6.630;2023-06-10T13:42:16;4.17;;;3.03;;
4819;SDS011;2424;49.696;6.630;2023-06-10T13:47:40;2.30;;;2.20;;
4819;SDS011;2424;49.696;6.630;2023-06-10T13:53:02;2.40;;;2.30;;
4819;SDS011;2424;49.696;6.630;2023-06-10T13:58:24;2.77;;;2.63;;
4819;SDS011;2424;49.696;6.630;2023-06-10T14:03:48;2.67;;;2.53;;
4819;SDS011;2424;49.696;6.630;2023-06-10T14:09:11;2.67;;;2.40;;
4819;SDS011;2424;49.696;6.630;2023-06-10T14:14:34;3.00;;;2.70;;
4819;SDS011;2424;49.696;6.630;2023-06-10T14:19:58;2.83;;;2.63;;
4819;SDS011;2424;49.696;6.630;2023-06-10T14:25:20;3.10;;;2.90;;
4819;SDS011;2424;49.696;6.630;2023-06-10T14:30:42;2.40;;;2.30;;
4819;SDS011;2424;49.696;6.630;2023-06-10T14:36:06;2.70;;;2.60;;
4819;SDS011;2424;49.696;6.630;2023-06-10T14:41:28;2.70;;;2.50;;
4819;SDS011;2424;49.696;6.630;2023-06-10T14:46:50;1.80;;;1.70;;
4819;SDS011;2424;49.696;6.630;2023-06-10T14:52:14;3.40;;;3.20;;
4819;SDS011;2424;49.696;6.630;2023-06-10T14:57:36;2.67;;;2.57;;
4819;SDS011;2424;49.696;6.630;2023-06-10T15:02:58;2.63;;;2.53;;
4819;SDS011;2424;49.696;6.630;2023-06-10T15:08:21;7.23;;;2.80;;
4819;SDS011;2424;49.696;6.630;2023-06-10T15:13:43;2.43;;;2.33;;
4819;SDS011;2424;49.696;6.630;2023-06-10T15:19:06;3.17;;;2.97;;
4819;SDS011;2424;49.696;6.630;2023-06-10T15:24:30;4.53;;;2.70;;
4819;SDS011;2424;49.696;6.630;2023-06-10T15:29:53;2.63;;;2.53;;
4819;SDS011;2424;49.696;6.630;2023-06-10T15:35:15;2.70;;;2.50;;
4819;SDS011;2424;49.696;6.630;2023-06-10T15:40:38;3.10;;;2.90;;
4819;SDS011;2424;49.696;6.630;2023-06-10T15:46:02;3.07;;;2.87;;
4819;SDS011;2424;49.696;6.630;2023-06-10T15:51:24;2.37;;;2.27;;
4819;SDS011;2424;49.696;6.630;2023-06-10T15:56:48;2.77;;;2.67;;
4819;SDS011;2424;49.696;6.630;2023-06-10T16:02:10;2.83;;;2.70;;
4819;SDS011;2424;49.696;6.630;2023-06-10T16:07:32;3.10;;;2.90;;
4819;SDS011;2424;49.696;6.630;2023-06-10T16:12:55;2.57;;;2.47;;
4819;SDS011;2424;49.696;6.630;2023-06-10T16:18:18;3.00;;;2.80;;
4819;SDS011;2424;49.696;6.630;2023-06-10T16:23:40;2.83;;;2.63;;
4819;SDS011;2424;49.696;6.630;2023-06-10T16:29:03;3.37;;;3.17;;
4819;SDS011;2424;49.696;6.630;2023-06-10T16:34:26;3.40;;;3.20;;
4819;SDS011;2424;49.696;6.630;2023-06-10T16:39:48;2.97;;;2.77;;
4819;SDS011;2424;49.696;6.630;2023-06-10T16:45:12;3.63;;;3.43;;
4819;SDS011;2424;49.696;6.630;2023-06-10T16:50:34;2.70;;;2.60;;
4819;SDS011;2424;49.696;6.630;2023-06-10T16:55:56;3.80;;;3.50;;
4819;SDS011;2424;49.696;6.630;2023-06-10T17:01:20;3.10;;;3.00;;
4819;SDS011;2424;49.696;6.630;2023-06-10T17:06:42;3.13;;;2.83;;
4819;SDS011;2424;49.696;6.630;2023-06-10T17:12:04;3.23;;;3.03;;
4819;SDS011;2424;49.696;6.630;2023-06-10T17:17:29;3.07;;;2.90;;
4819;SDS011;2424;49.696;6.630;2023-06-10T17:22:51;2.83;;;2.73;;
4819;SDS011;2424;49.696;6.630;2023-06-10T17:28:13;3.43;;;3.23;;
4819;SDS011;2424;49.696;6.630;2023-06-10T17:33:36;2.83;;;2.73;;
4819;SDS011;2424;49.696;6.630;2023-06-10T17:38:58;3.20;;;3.10;;
4819;SDS011;2424;49.696;6.630;2023-06-10T17:44:21;2.90;;;2.80;;
4819;SDS011;2424;49.696;6.630;2023-06-10T17:49:46;2.60;;;2.47;;
4819;SDS011;2424;49.696;6.630;2023-06-10T17:55:08;2.70;;;2.50;;
4819;SDS011;2424;49.696;6.630;2023-06-10T18:00:30;2.90;;;2.70;;
4819;SDS011;2424;49.696;6.630;2023-06-10T18:05:54;3.47;;;3.27;;
4819;SDS011;2424;49.696;6.630;2023-06-10T18:11:16;3.50;;;3.30;;
4819;SDS011;2424;49.696;6.630;2023-06-10T18:16:38;2.83;;;2.63;;
4819;SDS011;2424;49.696;6.630;2023-06-10T18:22:02;3.63;;;3.40;;
4819;SDS011;2424;49.696;6.630;2023-06-10T18:27:24;3.10;;;2.90;;
4819;SDS011;2424;49.696;6.630;2023-06-10T18:32:46;3.67;;;3.47;;
4819;SDS011;2424;49.696;6.630;2023-06-10T18:38:09;2.80;;;2.60;;
4819;SDS011;2424;49.696;6.630;2023-06-10T18:43:32;2.70;;;2.60;;
4819;SDS011;2424;49.696;6.630;2023-06-10T18:48:54;2.93;;;2.83;;
4819;SDS011;2424;49.696;6.630;2023-06-10T18:54:17;3.37;;;3.17;;
4819;SDS011;2424;49.696;6.630;2023-06-10T18:59:40;3.10;;;3.00;;
4819;SDS011;2424;49.696;6.630;2023-06-10T19:05:04;3.10;;;2.90;;
4819;SDS011;2424;49.696;6.630;2023-06-10T19:10:30;3.03;;;2.83;;
4819;SDS011;2424;49.696;6.630;2023-06-10T19:15:52;3.87;;;3.57;;
4819;SDS011;2424;49.696;6.630;2023-06-10T19:21:14;2.80;;;2.70;;
4819;SDS011;2424;49.696;6.630;2023-06-10T19:26:37;2.70;;;2.60;;
4819;SDS011;2424;49.696;6.630;2023-06-10T19:31:59;3.30;;;3.10;;
4819;SDS011;2424;49.696;6.630;2023-06-10T19:37:22;2.73;;;2.53;;
4819;SDS011;2424;49.696;6.630;2023-06-10T19:42:45;3.87;;;3.57;;
4819;SDS011;2424;49.696;6.630;2023-06-10T19:48:07;3.40;;;3.20;;
4819;SDS011;2424;49.696;6.630;2023-06-10T19:53:29;3.00;;;2.80;;
4819;SDS011;2424;49.696;6.630;2023-06-10T19:58:53;3.33;;;3.13;;
4819;SDS011;2424;49.696;6.630;2023-06-10T20:04:15;3.50;;;3.30;;
4819;SDS011;2424;49.696;6.630;2023-06-10T20:09:37;3.17;;;2.97;;
4819;SDS011;2424;49.696;6.630;2023-06-10T20:15:01;3.33;;;3.13;;
4819;SDS011;2424;49.696;6.630;2023-06-10T20:20:23;3.03;;;2.83;;
4819;SDS011;2424;49.696;6.630;2023-06-10T20:25:45;3.70;;;3.50;;
4819;SDS011;2424;49.696;6.630;2023-06-10T20:31:09;3.87;;;3.57;;
4819;SDS011;2424;49.696;6.630;2023-06-10T20:36:32;4.03;;;3.50;;
4819;SDS011;2424;49.696;6.630;2023-06-10T20:41:55;4.13;;;3.43;;
4819;SDS011;2424;49.696;6.630;2023-06-10T20:47:18;3.10;;;2.90;;
4819;SDS011;2424;49.696;6.630;2023-06-10T20:52:40;3.40;;;3.17;;
4819;SDS011;2424;49.696;6.630;2023-06-10T20:58:02;3.80;;;3.50;;
4819;SDS011;2424;49.696;6.630;2023-06-10T21:03:26;3.97;;;3.67;;
4819;SDS011;2424;49.696;6.630;2023-06-10T21:08:48;4.03;;;3.73;;
4819;SDS011;2424;49.696;6.630;2023-06-10T21:14:11;3.97;;;3.67;;
4819;SDS011;2424;49.696;6.630;2023-06-10T21:19:34;4.80;;;3.10;;
4819;SDS011;2424;49.696;6.630;2023-06-10T21:24:57;4.57;;;3.43;;
4819;SDS011;2424;49.696;6.630;2023-06-10T21:30:19;3.30;;;3.20;;
4819;SDS011;2424;49.696;6.630;2023-06-10T21:35:42;3.50;;;3.30;;
4819;SDS011;2424;49.696;6.630;2023-06-10T21:41:05;3.37;;;3.00;;
4819;SDS011;2424;49.696;6.630;2023-06-10T21:46:27;4.03;;;3.67;;
4819;SDS011;2424;49.696;6.630;2023-06-10T21:51:50;3.80;;;3.60;;
4819;SDS011;2424;49.696;6.630;2023-06-10T21:57:12;3.83;;;3.50;;
4819;SDS011;2424;49.696;6.630;2023-06-10T22:02:34;3.40;;;3.10;;
4819;SDS011;2424;49.696;6.630;2023-06-10T22:07:58;3.83;;;3.53;;
4819;SDS011;2424;49.696;6.630;2023-06-10T22:13:21;3.30;;;3.10;;
4819;SDS011;2424;49.696;6.630;2023-06-10T22:18:43;3.87;;;3.57;;
4819;SDS011;2424;49.696;6.630;2023-06-10T22:24:07;3.30;;;3.07;;
4819;SDS011;2424;49.696;6.630;2023-06-10T22:29:29;3.40;;;3.20;;
4819;SDS011;2424;49.696;6.630;2023-06-10T22:34:51;3.20;;;3.00;;
4819;SDS011;2424;49.696;6.630;2023-06-10T22:40:15;3.70;;;3.40;;
4819;SDS011;2424;49.696;6.630;2023-06-10T22:45:37;3.63;;;3.43;;
4819;SDS011;2424;49.696;6.630;2023-06-10T22:50:59;3.60;;;3.40;;
4819;SDS011;2424;49.696;6.630;2023-06-10T22:56:25;3.07;;;2.87;;
4819;SDS011;2424;49.696;6.630;2023-06-10T23:01:47;4.77;;;3.60;;
4819;SDS011;2424;49.696;6.630;2023-06-10T23:07:09;3.10;;;3.00;;
4819;SDS011;2424;49.696;6.630;2023-06-10T23:12:35;3.87;;;3.57;;
4819;SDS011;2424;49.696;6.630;2023-06-10T23:17:57;3.23;;;3.03;;
4819;SDS011;2424;49.696;6.630;2023-06-10T23:23:19;3.40;;;3.20;;
4819;SDS011;2424;49.696;6.630;2023-06-10T23:28:54;3.57;;;3.30;;
4819;SDS011;2424;49.696;6.630;2023-06-10T23:34:16;3.90;;;3.70;;
4819;SDS011;2424;49.696;6.630;2023-06-10T23:39:38;3.50;;;3.23;;
4819;SDS011;2424;49.696;6.630;2023-06-10T23:45:06;3.43;;;3.23;;
4819;SDS011;2424;49.696;6.630;2023-06-10T23:50:29;3.37;;;3.17;;
4819;SDS011;2424;49.696;6.630;2023-06-10T23:55:55;3.23;;;3.03;;
